Lamoille, Minnesota
Current Conditions -  °F | °C
As of 9:35 PM on Wednesday 22 Oct 2014 (Local Time) from KONA Reporting Station
Broken Clouds Broken Clouds  
Wind Chill: 54°   Ceiling: 8000
Heat Index: 54°   Visibility: 10mi
Dew Point: 39°   Wind: 9mph
Humidity: 58%   Direction: 150°SSE
Pressure: 30.14"   Gusts: NA
Location:  43.9823°N, 91.6349°W
Report Text: KONA 230235Z AUTO 15008KT 10SM SCT039 BKN080 12/04 A3014 RMK AO2
Loading
Personal Weather Stations






























Interactive Weather Map
Tropical Storm Tracking
New forecast layout! Learn more

10-Day Weather Forecast

Advertisements
Track Severe Weather on mobile